createdAt,value
2019-02-07T00:01:16.582Z,56.27
2019-02-07T00:03:45.286Z,56.80
2019-02-07T00:06:13.687Z,56.50
2019-02-07T00:08:42.067Z,55.17
2019-02-07T00:11:10.258Z,51.67
2019-02-07T00:13:38.726Z,49.63
2019-02-07T00:16:06.878Z,46.73
2019-02-07T00:18:35.084Z,47.50
2019-02-07T00:21:03.520Z,48.20
2019-02-07T00:23:31.853Z,45.73
2019-02-07T00:26:01.167Z,45.87
2019-02-07T00:28:29.558Z,47.43
2019-02-07T00:30:58.019Z,36.13
2019-02-07T00:33:26.647Z,32.53
2019-02-07T00:35:55.102Z,43.47
2019-02-07T00:38:23.570Z,42.63
2019-02-07T00:40:51.835Z,42.60
2019-02-07T00:43:19.995Z,41.93
2019-02-07T00:45:48.375Z,41.47
2019-02-07T00:48:16.559Z,40.70
2019-02-07T00:50:45.347Z,40.03
2019-02-07T00:53:13.746Z,40.50
2019-02-07T00:55:42.207Z,38.40
2019-02-07T00:58:10.610Z,42.10
2019-02-07T01:00:38.767Z,40.97
2019-02-07T01:03:07.215Z,41.10
2019-02-07T01:05:35.373Z,38.20
2019-02-07T01:08:04.107Z,37.23
2019-02-07T01:10:32.442Z,42.07
2019-02-07T01:13:00.598Z,40.60
2019-02-07T01:15:29.018Z,36.97
2019-02-07T01:17:57.239Z,34.97
2019-02-07T01:20:25.665Z,34.23
2019-02-07T01:22:54.363Z,34.83
2019-02-07T01:25:23.928Z,32.60
2019-02-07T01:27:53.600Z,32.50
2019-02-07T01:30:27.047Z,30.57
2019-02-07T01:32:55.491Z,29.97
2019-02-07T01:35:23.891Z,30.60
2019-02-07T01:37:52.543Z,33.73
2019-02-07T01:40:21.152Z,32.27
2019-02-07T01:42:49.546Z,33.73
2019-02-07T01:45:23.176Z,31.30
2019-02-07T01:47:51.678Z,36.27
2019-02-07T01:50:24.755Z,39.40
2019-02-07T01:52:53.419Z,32.63
2019-02-07T01:55:21.920Z,33.77
2019-02-07T01:57:50.384Z,34.20
2019-02-07T02:00:18.870Z,34.30
2019-02-07T02:02:47.308Z,34.20
2019-02-07T02:05:18.204Z,36.67
2019-02-07T02:07:47.120Z,37.00
2019-02-07T02:10:27.943Z,31.53
2019-02-07T02:12:56.362Z,29.93
2019-02-07T02:15:25.314Z,28.77
2019-02-07T02:17:53.643Z,27.33
2019-02-07T02:20:23.204Z,28.87
2019-02-07T02:22:51.524Z,28.07
2019-02-07T02:25:19.885Z,26.43
2019-02-07T02:27:48.263Z,28.07
2019-02-07T02:30:29.129Z,25.10
2019-02-07T02:32:57.285Z,22.50
2019-02-07T02:35:25.670Z,22.73
2019-02-07T02:37:53.863Z,23.80
2019-02-07T02:40:22.025Z,27.57
2019-02-07T02:42:50.166Z,26.53
2019-02-07T02:45:21.439Z,28.00
2019-02-07T02:47:49.831Z,26.53
2019-02-07T02:50:19.874Z,24.80
2019-02-07T02:52:48.623Z,25.93
2019-02-07T02:55:18.423Z,23.53
2019-02-07T02:57:46.620Z,21.60
2019-02-07T03:00:17.014Z,21.67
2019-02-07T03:03:02.062Z,21.30
2019-02-07T03:05:34.885Z,21.57
2019-02-07T03:08:10.707Z,22.00
2019-02-07T03:10:56.963Z,22.10
2019-02-07T03:13:26.761Z,21.10
2019-02-07T03:16:05.769Z,21.80
2019-02-07T03:18:38.920Z,22.40
2019-02-07T03:21:20.989Z,20.90
2019-02-07T03:23:54.064Z,19.70
2019-02-07T03:26:33.028Z,17.73
2019-02-07T03:29:08.988Z,17.03
2019-02-07T03:31:46.217Z,18.10
2019-02-07T03:34:16.251Z,17.43
2019-02-07T03:36:46.378Z,18.07
2019-02-07T03:39:19.198Z,17.30
2019-02-07T03:41:49.262Z,16.63
2019-02-07T03:44:19.600Z,17.30
2019-02-07T03:46:58.794Z,16.87
2019-02-07T03:49:45.321Z,17.37
2019-02-07T03:52:15.921Z,13.20
2019-02-07T03:54:48.903Z,16.23
2019-02-07T03:57:18.936Z,14.97
2019-02-07T03:59:54.701Z,16.50
2019-02-07T04:02:40.673Z,15.20
2019-02-07T04:05:17.519Z,16.30
2019-02-07T04:07:56.471Z,15.17
2019-02-07T04:10:26.539Z,14.43
2019-02-07T04:12:56.891Z,14.07
2019-02-07T04:15:29.667Z,14.03
2019-02-07T04:17:59.747Z,14.77
2019-02-07T04:20:46.129Z,14.43
2019-02-07T04:23:28.019Z,16.17
2019-02-07T04:26:13.940Z,15.30
2019-02-07T04:28:49.835Z,16.53
2019-02-07T04:31:22.704Z,16.93
2019-02-07T04:34:08.355Z,18.20
2019-02-07T04:36:38.147Z,17.83
2019-02-07T04:39:14.533Z,18.10
2019-02-07T04:41:47.125Z,17.50
2019-02-07T04:44:20.199Z,16.93
2019-02-07T04:46:55.873Z,17.20
2019-02-07T04:49:31.602Z,17.40
2019-02-07T04:52:13.735Z,16.37
2019-02-07T04:54:49.697Z,17.37
2019-02-07T04:57:34.652Z,16.73
2019-02-07T05:00:21.022Z,18.93
2019-02-07T05:02:51.040Z,17.13
2019-02-07T05:05:23.549Z,15.97
2019-02-07T05:08:02.560Z,15.93
2019-02-07T05:10:32.706Z,15.90
2019-02-07T05:13:11.663Z,17.87
2019-02-07T05:15:57.638Z,16.77
2019-02-07T05:18:44.142Z,18.27
2019-02-07T05:21:30.734Z,17.87
2019-02-07T05:24:09.777Z,17.97
2019-02-07T05:26:39.763Z,18.10
2019-02-07T05:29:12.700Z,18.40
2019-02-07T05:31:58.923Z,17.67
2019-02-07T05:34:30.435Z,19.07
2019-02-07T05:37:00.458Z,19.17
2019-02-07T05:39:46.695Z,19.43
2019-02-07T05:42:16.727Z,19.37
2019-02-07T05:45:05.632Z,20.27
2019-02-07T05:47:51.852Z,20.23
2019-02-07T05:50:38.084Z,19.97
2019-02-07T05:53:23.345Z,19.07
2019-02-07T05:55:53.411Z,20.97
2019-02-07T05:58:32.582Z,20.20
2019-02-07T06:01:05.381Z,20.37
2019-02-07T06:03:35.483Z,21.73
2019-02-07T06:06:11.371Z,20.23
2019-02-07T06:08:59.867Z,19.77
2019-02-07T06:11:38.866Z,19.80
2019-02-07T06:14:26.993Z,18.93
2019-02-07T06:17:02.746Z,19.37
2019-02-07T06:19:29.180Z,20.83
2019-02-07T06:21:59.239Z,20.00
2019-02-07T06:24:41.283Z,22.30
2019-02-07T06:27:14.201Z,28.70
2019-02-07T06:29:44.242Z,24.47
2019-02-07T06:32:14.373Z,25.27
2019-02-07T06:34:47.427Z,26.07
2019-02-07T06:37:18.467Z,27.07
2019-02-07T06:39:51.214Z,32.70
2019-02-07T06:42:23.982Z,28.03
2019-02-07T06:44:59.825Z,27.43
2019-02-07T06:47:29.887Z,25.37
2019-02-07T06:49:59.919Z,23.87
2019-02-07T06:52:39.020Z,26.33
2019-02-07T06:55:19.411Z,26.33
2019-02-07T06:57:55.559Z,25.77
2019-02-07T07:00:28.141Z,40.97
2019-02-07T07:03:13.231Z,59.87
2019-02-07T07:05:46.000Z,49.23
2019-02-07T07:08:16.239Z,43.80
2019-02-07T07:10:58.355Z,43.43
2019-02-07T07:13:34.398Z,40.70
2019-02-07T07:16:07.341Z,43.07
2019-02-07T07:18:42.892Z,45.87
2019-02-07T07:21:29.533Z,50.33
2019-02-07T07:24:14.337Z,66.70
2019-02-07T07:26:47.247Z,62.27
2019-02-07T07:29:32.435Z,73.70
2019-02-07T07:32:02.276Z,66.00
2019-02-07T07:34:32.344Z,71.57
2019-02-07T07:37:14.143Z,63.47
2019-02-07T07:39:45.243Z,62.27
2019-02-07T07:42:31.772Z,60.60
2019-02-07T07:45:07.947Z,54.33
2019-02-07T07:47:43.852Z,46.37
2019-02-07T07:50:31.199Z,44.23
2019-02-07T07:53:14.650Z,30.97
2019-02-07T07:55:44.727Z,32.93
2019-02-07T07:58:32.950Z,34.50
2019-02-07T08:01:05.917Z,41.97
2019-02-07T08:03:36.991Z,39.13
2019-02-07T08:06:10.152Z,37.97
2019-02-07T08:08:40.242Z,47.80
2019-02-07T08:11:26.722Z,45.27
2019-02-07T08:14:05.700Z,46.70
2019-02-07T08:16:38.771Z,44.90
2019-02-07T08:19:11.812Z,29.80
2019-02-07T08:21:41.902Z,30.93
2019-02-07T08:24:28.355Z,29.30
2019-02-07T08:27:01.232Z,29.80
2019-02-07T08:29:31.079Z,29.47
2019-02-07T08:32:17.909Z,29.33
2019-02-07T08:34:56.736Z,28.37
2019-02-07T08:37:33.110Z,27.80
2019-02-07T08:40:16.028Z,21.53
2019-02-07T08:43:01.995Z,24.50
2019-02-07T08:45:44.127Z,22.03
2019-02-07T08:48:14.210Z,22.97
2019-02-07T08:50:44.637Z,24.57
2019-02-07T08:53:26.647Z,29.77
2019-02-07T08:56:02.520Z,27.77
2019-02-07T08:58:48.915Z,27.50
2019-02-07T09:01:22.107Z,28.60
2019-02-07T09:04:08.251Z,30.60
2019-02-07T09:06:54.426Z,25.53
2019-02-07T09:09:27.376Z,32.13
2019-02-07T09:11:57.558Z,34.97
2019-02-07T09:14:44.387Z,35.73
2019-02-07T09:17:30.742Z,32.00
2019-02-07T09:20:15.983Z,26.90
2019-02-07T09:23:02.437Z,29.07
2019-02-07T09:25:48.139Z,26.37
2019-02-07T09:28:33.289Z,24.93
2019-02-07T09:31:03.545Z,24.63
2019-02-07T09:33:39.687Z,26.37
2019-02-07T09:36:10.217Z,28.63
2019-02-07T09:38:42.977Z,33.73
2019-02-07T09:41:14.447Z,37.03
2019-02-07T09:43:56.714Z,40.90
2019-02-07T09:46:42.935Z,30.17
2019-02-07T09:49:19.641Z,35.30
2019-02-07T09:52:02.406Z,35.53
2019-02-07T09:54:47.782Z,34.30
2019-02-07T09:57:28.568Z,30.43
2019-02-07T10:00:07.505Z,43.37
2019-02-07T10:02:41.230Z,27.20
2019-02-07T10:05:18.864Z,23.20
2019-02-07T10:07:51.776Z,21.47
2019-02-07T10:10:22.038Z,17.80
2019-02-07T10:12:55.079Z,13.20
2019-02-07T10:15:43.731Z,16.87
2019-02-07T10:18:32.724Z,11.33
2019-02-07T10:21:00.188Z,11.73
2019-02-07T10:23:39.723Z,12.87
2019-02-07T10:26:26.223Z,15.13
2019-02-07T10:29:10.041Z,14.20
2019-02-07T10:31:43.865Z,13.67
2019-02-07T10:34:20.394Z,13.87
2019-02-07T10:36:59.276Z,13.27
2019-02-07T10:39:35.233Z,16.77
2019-02-07T10:42:15.646Z,16.60
2019-02-07T10:44:48.548Z,17.90
2019-02-07T10:47:30.388Z,16.40
2019-02-07T10:49:59.686Z,16.43
2019-02-07T10:52:42.528Z,14.47
2019-02-07T10:55:19.040Z,14.03
2019-02-07T10:57:50.587Z,13.97
2019-02-07T11:00:22.375Z,17.13
2019-02-07T11:03:12.675Z,16.57
2019-02-07T11:05:45.546Z,17.17
2019-02-07T11:08:22.265Z,15.60
2019-02-07T11:11:08.785Z,13.33
2019-02-07T11:13:44.852Z,14.90
2019-02-07T11:16:26.840Z,14.07
2019-02-07T11:19:20.708Z,12.20
2019-02-07T11:21:43.058Z,14.27
2019-02-07T11:24:19.300Z,14.30
2019-02-07T11:26:50.968Z,21.00
2019-02-07T11:29:23.969Z,17.50
2019-02-07T11:32:00.222Z,16.87
2019-02-07T11:34:46.077Z,17.20
2019-02-07T11:37:28.821Z,13.43
2019-02-07T11:40:04.589Z,13.37
2019-02-07T11:42:51.160Z,14.57
2019-02-07T11:45:29.760Z,13.13
2019-02-07T11:48:02.898Z,12.50
2019-02-07T11:50:51.472Z,13.73
2019-02-07T11:53:21.847Z,13.80
2019-02-07T11:56:01.438Z,12.93
2019-02-07T11:58:37.596Z,13.33
2019-02-07T12:01:17.711Z,17.67
2019-02-07T12:03:56.859Z,14.10
2019-02-07T12:06:33.012Z,21.47
2019-02-07T12:09:18.321Z,13.23
2019-02-07T12:11:57.250Z,13.77
2019-02-07T12:14:27.270Z,12.67
2019-02-07T12:16:57.689Z,12.37
2019-02-07T12:19:37.057Z,12.47
2019-02-07T12:22:07.075Z,11.00
2019-02-07T12:24:40.145Z,11.30
2019-02-07T12:27:22.020Z,11.17
2019-02-07T12:30:02.105Z,10.90
2019-02-07T12:32:40.490Z,14.17
2019-02-07T12:35:21.620Z,13.17
2019-02-07T12:38:06.491Z,11.77
2019-02-07T12:40:57.432Z,14.00
2019-02-07T12:43:36.076Z,13.37
2019-02-07T12:46:12.252Z,10.50
2019-02-07T12:48:54.156Z,14.13
2019-02-07T12:51:29.752Z,13.10
2019-02-07T12:54:04.606Z,12.87
2019-02-07T12:56:47.904Z,13.00
2019-02-07T12:59:25.728Z,14.53
2019-02-07T13:02:03.864Z,14.10
2019-02-07T13:04:37.051Z,15.57
2019-02-07T13:07:07.063Z,12.37
2019-02-07T13:09:53.439Z,16.37
2019-02-07T13:12:25.675Z,13.70
2019-02-07T13:15:11.868Z,12.20
2019-02-07T13:17:42.126Z,11.70
2019-02-07T13:20:17.135Z,10.33
2019-02-07T13:22:50.167Z,13.03
2019-02-07T13:25:20.100Z,11.83
2019-02-07T13:27:56.615Z,10.13
2019-02-07T13:30:42.626Z,12.23
2019-02-07T13:33:15.568Z,12.43
2019-02-07T13:35:54.460Z,11.97
2019-02-07T13:38:30.386Z,12.87
2019-02-07T13:41:16.506Z,21.07
2019-02-07T13:43:52.663Z,19.47
2019-02-07T13:46:38.726Z,25.30
2019-02-07T13:49:09.630Z,23.27
2019-02-07T13:52:00.023Z,19.73
2019-02-07T13:54:42.304Z,114.47
2019-02-07T13:57:15.856Z,16.33
2019-02-07T13:59:55.418Z,14.07
2019-02-07T14:02:29.620Z,13.50
2019-02-07T14:05:15.719Z,17.60
2019-02-07T14:07:50.539Z,20.23
2019-02-07T14:10:26.716Z,20.47
2019-02-07T14:12:57.232Z,22.30
2019-02-07T14:15:35.868Z,13.63
2019-02-07T14:18:05.998Z,14.97
2019-02-07T14:21:02.998Z,17.40
2019-02-07T14:23:47.821Z,17.17
2019-02-07T14:26:20.963Z,23.67
2019-02-07T14:29:07.407Z,64.40
2019-02-07T14:31:55.533Z,36.97
2019-02-07T14:34:42.140Z,37.93
2019-02-07T14:37:15.414Z,43.27
2019-02-07T14:40:03.543Z,65.83
2019-02-07T14:42:47.858Z,128.30
2019-02-07T14:45:23.327Z,267.63
2019-02-07T14:47:51.636Z,238.97
2019-02-07T14:50:20.858Z,103.03
2019-02-07T14:52:49.804Z,145.03
2019-02-07T14:55:20.362Z,53.80
2019-02-07T14:57:48.844Z,88.20
2019-02-07T15:00:20.798Z,75.77
2019-02-07T15:02:49.003Z,152.27
2019-02-07T15:05:18.185Z,70.70
2019-02-07T15:07:46.850Z,57.07
2019-02-07T15:10:19.828Z,54.07
2019-02-07T15:12:48.684Z,42.63
2019-02-07T15:15:21.300Z,44.27
2019-02-07T15:17:50.798Z,54.80
2019-02-07T15:20:26.095Z,75.77
2019-02-07T15:22:57.594Z,64.73
2019-02-07T15:25:25.804Z,64.07
2019-02-07T15:27:54.432Z,73.23
2019-02-07T15:30:28.108Z,101.23
2019-02-07T15:32:55.457Z,142.53
2019-02-07T15:35:25.392Z,138.77
2019-02-07T15:38:12.293Z,132.17
2019-02-07T15:40:43.763Z,137.57
2019-02-07T15:43:12.453Z,112.60
2019-02-07T15:45:40.615Z,119.67
2019-02-07T15:48:09.317Z,122.17
2019-02-07T15:50:40.169Z,172.60
2019-02-07T15:53:10.255Z,162.00
2019-02-07T15:55:42.442Z,149.90
2019-02-07T15:58:12.135Z,147.83
2019-02-07T16:01:02.083Z,167.00
2019-02-07T16:03:35.963Z,165.53
2019-02-07T16:06:13.149Z,161.07
2019-02-07T16:08:41.810Z,124.60
2019-02-07T16:11:12.355Z,107.30
2019-02-07T16:13:41.562Z,113.10
2019-02-07T16:16:10.021Z,118.33
2019-02-07T16:18:38.370Z,113.80
2019-02-07T16:21:06.565Z,123.27
2019-02-07T16:23:35.321Z,132.43
2019-02-07T16:26:03.546Z,127.70
2019-02-07T16:28:32.006Z,146.40
2019-02-07T16:31:00.521Z,163.17
2019-02-07T16:33:28.761Z,218.87
2019-02-07T16:35:57.224Z,201.33
2019-02-07T16:38:25.797Z,193.30
2019-02-07T16:40:54.257Z,184.93
2019-02-07T16:43:23.474Z,151.50
2019-02-07T16:45:51.847Z,141.77
2019-02-07T16:48:20.523Z,159.93
2019-02-07T16:50:59.642Z,149.97
2019-02-07T16:53:18.637Z,143.63
2019-02-07T16:55:48.164Z,145.60
2019-02-07T16:58:16.328Z,137.17
2019-02-07T17:00:44.594Z,141.07
2019-02-07T17:03:12.981Z,148.87
2019-02-07T17:05:41.648Z,132.80
2019-02-07T17:08:10.135Z,126.50
2019-02-07T17:10:40.604Z,126.70
2019-02-07T17:13:12.460Z,128.07
2019-02-07T17:15:41.167Z,146.33
2019-02-07T17:18:09.788Z,143.10
2019-02-07T17:20:37.911Z,146.10
2019-02-07T17:23:06.404Z,170.00
2019-02-07T17:25:34.574Z,177.90
2019-02-07T17:28:03.286Z,251.17
2019-02-07T17:30:32.066Z,203.33
2019-02-07T17:33:00.669Z,137.87
2019-02-07T17:35:29.099Z,130.77
2019-02-07T17:37:57.319Z,143.10
2019-02-07T17:40:26.209Z,254.13
2019-02-07T17:42:54.325Z,220.47
2019-02-07T17:45:27.649Z,202.83
2019-02-07T17:47:56.122Z,204.60
2019-02-07T17:50:32.272Z,208.63
2019-02-07T17:53:01.301Z,215.30
2019-02-07T17:55:29.626Z,229.90
2019-02-07T17:57:58.728Z,195.73
2019-02-07T18:00:36.047Z,220.40
2019-02-07T18:03:04.329Z,232.67
2019-02-07T18:05:32.932Z,188.53
2019-02-07T18:08:01.342Z,269.47
2019-02-07T18:10:29.724Z,280.37
2019-02-07T18:12:58.683Z,232.97
2019-02-07T18:15:27.240Z,207.30
2019-02-07T18:17:55.470Z,237.47
2019-02-07T18:20:23.646Z,238.47
2019-02-07T18:22:51.885Z,238.20
2019-02-07T18:25:20.255Z,230.37
2019-02-07T18:27:48.402Z,236.60
2019-02-07T18:30:18.026Z,275.80
2019-02-07T18:32:47.485Z,161.03
2019-02-07T18:35:16.397Z,21.80
2019-02-07T18:37:44.553Z,20.20
2019-02-07T18:40:19.265Z,16.33
2019-02-07T18:42:47.728Z,15.03
2019-02-07T18:45:18.108Z,12.90
2019-02-07T18:47:46.319Z,12.00
2019-02-07T18:50:21.158Z,14.70
2019-02-07T18:52:49.743Z,13.90
2019-02-07T18:55:18.612Z,14.17
2019-02-07T18:57:46.766Z,14.20
2019-02-07T19:00:22.224Z,14.97
2019-02-07T19:02:51.416Z,17.07
2019-02-07T19:05:20.688Z,14.03
2019-02-07T19:07:49.309Z,17.47
2019-02-07T19:10:21.190Z,21.20
2019-02-07T19:12:50.093Z,28.63
2019-02-07T19:15:34.358Z,28.33
2019-02-07T19:18:02.972Z,11.50
2019-02-07T19:20:31.400Z,17.33
2019-02-07T19:23:00.138Z,18.53
2019-02-07T19:25:28.687Z,14.47
2019-02-07T19:27:58.103Z,13.50
2019-02-07T19:30:31.855Z,14.03
2019-02-07T19:33:00.817Z,14.50
2019-02-07T19:35:29.450Z,28.70
2019-02-07T19:37:58.389Z,34.20
2019-02-07T19:40:27.007Z,27.13
2019-02-07T19:42:56.119Z,17.37
2019-02-07T19:45:28.639Z,57.33
2019-02-07T19:47:58.863Z,77.97
2019-02-07T19:50:28.231Z,73.20
2019-02-07T19:52:57.290Z,56.40
2019-02-07T19:55:32.863Z,73.10
2019-02-07T19:58:02.019Z,87.93
2019-02-07T20:00:39.341Z,50.50
2019-02-07T20:03:08.779Z,51.03
2019-02-07T20:05:39.107Z,57.07
2019-02-07T20:08:08.183Z,79.10
2019-02-07T20:10:38.954Z,74.83
2019-02-07T20:13:07.939Z,93.77
2019-02-07T20:15:39.106Z,88.33
2019-02-07T20:18:08.882Z,85.53
2019-02-07T20:20:37.495Z,101.20
2019-02-07T20:23:06.261Z,104.67
2019-02-07T20:25:34.773Z,109.03
2019-02-07T20:28:03.523Z,121.07
2019-02-07T20:30:43.445Z,162.47
2019-02-07T20:33:16.967Z,193.73
2019-02-07T20:35:45.655Z,137.43
2019-02-07T20:38:14.333Z,113.47
2019-02-07T20:40:43.110Z,119.63
2019-02-07T20:43:11.525Z,121.83
2019-02-07T20:45:40.196Z,135.90
2019-02-07T20:48:08.778Z,105.40
2019-02-07T20:50:37.416Z,25.27
2019-02-07T20:53:08.079Z,13.57
2019-02-07T20:55:36.650Z,30.17
2019-02-07T20:58:05.550Z,16.83
2019-02-07T21:00:36.285Z,14.60
2019-02-07T21:03:05.363Z,12.93
2019-02-07T21:05:35.468Z,13.60
2019-02-07T21:08:04.179Z,14.63
2019-02-07T21:10:37.702Z,13.10
2019-02-07T21:13:06.911Z,13.03
2019-02-07T21:15:35.818Z,11.80
2019-02-07T21:18:05.099Z,13.23
2019-02-07T21:20:33.879Z,13.30
2019-02-07T21:23:02.638Z,15.67
2019-02-07T21:25:34.411Z,20.97
2019-02-07T21:28:03.045Z,63.37
2019-02-07T21:30:32.643Z,77.67
2019-02-07T21:33:01.110Z,82.07
2019-02-07T21:35:29.864Z,89.37
2019-02-07T21:37:58.371Z,90.27
2019-02-07T21:40:28.908Z,85.43
2019-02-07T21:42:58.650Z,79.43
2019-02-07T21:45:27.163Z,75.27
2019-02-07T21:47:56.203Z,75.03
2019-02-07T21:50:26.773Z,75.90
2019-02-07T21:52:55.327Z,73.37
2019-02-07T21:55:26.085Z,81.13
2019-02-07T21:57:54.670Z,103.23
2019-02-07T22:00:25.992Z,89.20
2019-02-07T22:02:55.427Z,76.77
2019-02-07T22:05:24.455Z,79.10
2019-02-07T22:07:54.428Z,81.97
2019-02-07T22:10:23.266Z,93.93
2019-02-07T22:12:51.808Z,89.90
2019-02-07T22:15:25.727Z,88.37
2019-02-07T22:17:54.320Z,86.03
2019-02-07T22:20:27.494Z,80.87
2019-02-07T22:22:56.879Z,82.57
2019-02-07T22:25:25.457Z,81.87
2019-02-07T22:27:53.847Z,73.63
2019-02-07T22:30:34.749Z,82.40
2019-02-07T22:33:03.798Z,80.13
2019-02-07T22:35:32.482Z,75.67
2019-02-07T22:38:01.393Z,78.80
2019-02-07T22:40:30.467Z,74.13
2019-02-07T22:43:00.417Z,77.93
2019-02-07T22:45:30.692Z,70.63
2019-02-07T22:47:59.274Z,97.13
2019-02-07T22:50:30.286Z,74.93
2019-02-07T22:53:00.564Z,60.47
2019-02-07T22:55:29.284Z,51.80
2019-02-07T22:57:57.822Z,47.37
2019-02-07T23:00:34.490Z,43.33
2019-02-07T23:03:05.317Z,42.73
2019-02-07T23:05:33.850Z,39.30
2019-02-07T23:08:02.996Z,42.50
2019-02-07T23:10:32.367Z,42.40
2019-02-07T23:13:01.277Z,40.37
2019-02-07T23:15:29.734Z,31.37
2019-02-07T23:17:58.308Z,29.63
2019-02-07T23:20:26.860Z,47.33
2019-02-07T23:22:55.799Z,53.50
2019-02-07T23:25:24.266Z,52.97
2019-02-07T23:27:52.671Z,49.07
2019-02-07T23:30:21.180Z,45.80
2019-02-07T23:32:49.583Z,57.50
2019-02-07T23:35:17.974Z,54.77
2019-02-07T23:37:46.420Z,41.43
2019-02-07T23:40:20.896Z,37.13
2019-02-07T23:42:49.571Z,36.77
2019-02-07T23:45:20.905Z,33.03
2019-02-07T23:47:49.303Z,31.97
2019-02-07T23:50:17.769Z,29.87
2019-02-07T23:52:46.288Z,28.53
2019-02-07T23:55:15.535Z,27.93
2019-02-07T23:57:43.923Z,25.97
